sensor_id;sensor_type;location;lat;lon;timestamp;temperature;humidity
6106;DHT22;3083;51.508;7.966;2023-04-19T00:01:40;9.80;99.90
6106;DHT22;3083;51.508;7.966;2023-04-19T00:04:08;9.80;99.90
6106;DHT22;3083;51.508;7.966;2023-04-19T00:06:35;9.80;99.90
6106;DHT22;3083;51.508;7.966;2023-04-19T00:09:02;9.80;99.90
6106;DHT22;3083;51.508;7.966;2023-04-19T00:11:29;9.80;99.90
6106;DHT22;3083;51.508;7.966;2023-04-19T00:13:56;9.80;99.90
6106;DHT22;3083;51.508;7.966;2023-04-19T00:16:23;9.80;99.90
6106;DHT22;3083;51.508;7.966;2023-04-19T00:18:50;9.80;99.90
6106;DHT22;3083;51.508;7.966;2023-04-19T00:21:18;9.80;99.90
6106;DHT22;3083;51.508;7.966;2023-04-19T00:23:45;9.80;99.90
6106;DHT22;3083;51.508;7.966;2023-04-19T00:26:12;9.80;99.90
6106;DHT22;3083;51.508;7.966;2023-04-19T00:28:40;9.80;99.90
6106;DHT22;3083;51.508;7.966;2023-04-19T00:31:07;9.80;99.90
6106;DHT22;3083;51.508;7.966;2023-04-19T00:33:34;9.70;99.90
6106;DHT22;3083;51.508;7.966;2023-04-19T00:36:00;9.70;99.90
6106;DHT22;3083;51.508;7.966;2023-04-19T00:38:29;9.80;99.90
6106;DHT22;3083;51.508;7.966;2023-04-19T00:40:57;9.80;99.90
6106;DHT22;3083;51.508;7.966;2023-04-19T00:43:25;9.80;99.90
6106;DHT22;3083;51.508;7.966;2023-04-19T00:45:51;9.70;99.90
6106;DHT22;3083;51.508;7.966;2023-04-19T00:48:19;9.80;99.90
6106;DHT22;3083;51.508;7.966;2023-04-19T00:50:46;9.70;99.90
6106;DHT22;3083;51.508;7.966;2023-04-19T00:53:13;9.70;99.90
6106;DHT22;3083;51.508;7.966;2023-04-19T00:55:41;9.70;99.90
6106;DHT22;3083;51.508;7.966;2023-04-19T00:58:08;9.70;99.90
6106;DHT22;3083;51.508;7.966;2023-04-19T01:00:36;9.70;99.90
6106;DHT22;3083;51.508;7.966;2023-04-19T01:03:03;9.70;99.90
6106;DHT22;3083;51.508;7.966;2023-04-19T01:05:30;9.70;99.90
6106;DHT22;3083;51.508;7.966;2023-04-19T01:07:57;9.70;99.90
6106;DHT22;3083;51.508;7.966;2023-04-19T01:10:24;9.70;99.90
6106;DHT22;3083;51.508;7.966;2023-04-19T01:12:52;9.70;99.90
6106;DHT22;3083;51.508;7.966;2023-04-19T01:15:19;9.70;99.90
6106;DHT22;3083;51.508;7.966;2023-04-19T01:17:46;9.70;99.90
6106;DHT22;3083;51.508;7.966;2023-04-19T01:20:13;9.70;99.90
6106;DHT22;3083;51.508;7.966;2023-04-19T01:22:42;9.70;99.90
6106;DHT22;3083;51.508;7.966;2023-04-19T01:25:09;9.70;99.90
6106;DHT22;3083;51.508;7.966;2023-04-19T01:27:36;9.60;99.90
6106;DHT22;3083;51.508;7.966;2023-04-19T01:30:03;9.70;99.90
6106;DHT22;3083;51.508;7.966;2023-04-19T01:32:30;9.70;99.90
6106;DHT22;3083;51.508;7.966;2023-04-19T01:34:57;9.60;99.90
6106;DHT22;3083;51.508;7.966;2023-04-19T01:37:24;9.70;99.90
6106;DHT22;3083;51.508;7.966;2023-04-19T01:39:52;9.70;99.90
6106;DHT22;3083;51.508;7.966;2023-04-19T01:42:19;9.70;99.90
6106;DHT22;3083;51.508;7.966;2023-04-19T01:44:46;9.70;99.90
6106;DHT22;3083;51.508;7.966;2023-04-19T01:47:13;9.60;99.90
6106;DHT22;3083;51.508;7.966;2023-04-19T01:49:40;9.60;99.90
6106;DHT22;3083;51.508;7.966;2023-04-19T01:52:07;9.60;99.90
6106;DHT22;3083;51.508;7.966;2023-04-19T01:54:33;9.50;99.90
6106;DHT22;3083;51.508;7.966;2023-04-19T01:57:02;9.50;99.90
6106;DHT22;3083;51.508;7.966;2023-04-19T01:59:29;9.50;99.90
6106;DHT22;3083;51.508;7.966;2023-04-19T02:01:56;9.50;99.90
6106;DHT22;3083;51.508;7.966;2023-04-19T02:04:22;9.40;99.90
6106;DHT22;3083;51.508;7.966;2023-04-19T02:06:49;9.50;99.90
6106;DHT22;3083;51.508;7.966;2023-04-19T02:09:16;9.40;99.90
6106;DHT22;3083;51.508;7.966;2023-04-19T02:11:43;9.40;99.90
6106;DHT22;3083;51.508;7.966;2023-04-19T02:14:11;9.40;99.90
6106;DHT22;3083;51.508;7.966;2023-04-19T02:16:38;9.40;99.90
6106;DHT22;3083;51.508;7.966;2023-04-19T02:19:05;9.40;99.90
6106;DHT22;3083;51.508;7.966;2023-04-19T02:21:32;9.40;99.90
6106;DHT22;3083;51.508;7.966;2023-04-19T02:23:59;9.30;99.90
6106;DHT22;3083;51.508;7.966;2023-04-19T02:26:26;9.30;99.90
6106;DHT22;3083;51.508;7.966;2023-04-19T02:28:53;9.30;99.90
6106;DHT22;3083;51.508;7.966;2023-04-19T02:31:21;9.30;99.90
6106;DHT22;3083;51.508;7.966;2023-04-19T02:33:48;9.30;99.90
6106;DHT22;3083;51.508;7.966;2023-04-19T02:36:15;9.20;99.90
6106;DHT22;3083;51.508;7.966;2023-04-19T02:38:42;9.20;99.90
6106;DHT22;3083;51.508;7.966;2023-04-19T02:41:09;9.20;99.90
6106;DHT22;3083;51.508;7.966;2023-04-19T02:43:36;9.20;99.90
6106;DHT22;3083;51.508;7.966;2023-04-19T02:46:03;9.10;99.90
6106;DHT22;3083;51.508;7.966;2023-04-19T02:48:31;9.10;99.90
6106;DHT22;3083;51.508;7.966;2023-04-19T02:50:58;9.10;99.90
6106;DHT22;3083;51.508;7.966;2023-04-19T02:53:25;9.10;99.90
6106;DHT22;3083;51.508;7.966;2023-04-19T02:55:52;9.00;99.90
6106;DHT22;3083;51.508;7.966;2023-04-19T02:58:19;9.00;99.90
6106;DHT22;3083;51.508;7.966;2023-04-19T03:00:46;9.00;99.90
6106;DHT22;3083;51.508;7.966;2023-04-19T03:03:13;9.00;99.90
6106;DHT22;3083;51.508;7.966;2023-04-19T03:05:41;8.90;99.90
6106;DHT22;3083;51.508;7.966;2023-04-19T03:08:08;8.90;99.90
6106;DHT22;3083;51.508;7.966;2023-04-19T03:10:36;8.90;99.90
6106;DHT22;3083;51.508;7.966;2023-04-19T03:13:03;8.90;99.90
6106;DHT22;3083;51.508;7.966;2023-04-19T03:15:30;8.90;99.90
6106;DHT22;3083;51.508;7.966;2023-04-19T03:17:57;8.90;99.90
6106;DHT22;3083;51.508;7.966;2023-04-19T03:20:24;8.80;99.90
6106;DHT22;3083;51.508;7.966;2023-04-19T03:22:53;8.80;99.90
6106;DHT22;3083;51.508;7.966;2023-04-19T03:25:20;8.80;99.90
6106;DHT22;3083;51.508;7.966;2023-04-19T03:27:47;8.70;99.90
6106;DHT22;3083;51.508;7.966;2023-04-19T03:30:15;8.70;99.90
6106;DHT22;3083;51.508;7.966;2023-04-19T03:32:42;8.70;99.90
6106;DHT22;3083;51.508;7.966;2023-04-19T03:35:09;8.60;99.90
6106;DHT22;3083;51.508;7.966;2023-04-19T03:37:36;8.60;99.90
6106;DHT22;3083;51.508;7.966;2023-04-19T03:40:05;8.50;99.90
6106;DHT22;3083;51.508;7.966;2023-04-19T03:42:33;8.40;99.90
6106;DHT22;3083;51.508;7.966;2023-04-19T03:44:59;8.40;99.90
6106;DHT22;3083;51.508;7.966;2023-04-19T03:47:26;8.40;99.90
6106;DHT22;3083;51.508;7.966;2023-04-19T03:49:53;8.30;99.90
6106;DHT22;3083;51.508;7.966;2023-04-19T03:52:20;8.30;99.90
6106;DHT22;3083;51.508;7.966;2023-04-19T03:54:47;8.30;99.90
6106;DHT22;3083;51.508;7.966;2023-04-19T03:57:16;8.30;99.90
6106;DHT22;3083;51.508;7.966;2023-04-19T03:59:43;8.30;99.90
6106;DHT22;3083;51.508;7.966;2023-04-19T04:02:10;8.20;99.90
6106;DHT22;3083;51.508;7.966;2023-04-19T04:04:37;8.20;99.90
6106;DHT22;3083;51.508;7.966;2023-04-19T04:07:04;8.30;99.90
6106;DHT22;3083;51.508;7.966;2023-04-19T04:09:31;8.20;99.90
6106;DHT22;3083;51.508;7.966;2023-04-19T04:11:57;8.20;99.90
6106;DHT22;3083;51.508;7.966;2023-04-19T04:14:26;8.20;99.90
6106;DHT22;3083;51.508;7.966;2023-04-19T04:16:53;8.20;99.90
6106;DHT22;3083;51.508;7.966;2023-04-19T04:19:20;8.20;99.90
6106;DHT22;3083;51.508;7.966;2023-04-19T04:21:47;8.20;99.90
6106;DHT22;3083;51.508;7.966;2023-04-19T04:24:14;8.20;99.90
6106;DHT22;3083;51.508;7.966;2023-04-19T04:26:42;8.10;99.90
6106;DHT22;3083;51.508;7.966;2023-04-19T04:29:09;8.10;99.90
6106;DHT22;3083;51.508;7.966;2023-04-19T04:31:37;8.00;99.90
6106;DHT22;3083;51.508;7.966;2023-04-19T04:34:04;8.00;99.90
6106;DHT22;3083;51.508;7.966;2023-04-19T04:36:33;8.00;99.90
6106;DHT22;3083;51.508;7.966;2023-04-19T04:39:01;7.90;99.90
6106;DHT22;3083;51.508;7.966;2023-04-19T04:41:28;7.90;99.90
6106;DHT22;3083;51.508;7.966;2023-04-19T04:43:56;7.90;99.90
6106;DHT22;3083;51.508;7.966;2023-04-19T04:46:23;7.80;99.90
6106;DHT22;3083;51.508;7.966;2023-04-19T04:48:52;7.80;99.90
6106;DHT22;3083;51.508;7.966;2023-04-19T04:51:19;7.80;99.90
6106;DHT22;3083;51.508;7.966;2023-04-19T04:53:46;7.70;99.90
6106;DHT22;3083;51.508;7.966;2023-04-19T04:56:13;7.70;99.90
6106;DHT22;3083;51.508;7.966;2023-04-19T04:58:39;7.70;99.90
6106;DHT22;3083;51.508;7.966;2023-04-19T05:01:06;7.70;99.90
6106;DHT22;3083;51.508;7.966;2023-04-19T05:03:33;7.70;99.90
6106;DHT22;3083;51.508;7.966;2023-04-19T05:06:02;7.80;99.90
6106;DHT22;3083;51.508;7.966;2023-04-19T05:08:29;7.90;99.90
6106;DHT22;3083;51.508;7.966;2023-04-19T05:10:56;8.00;99.90
6106;DHT22;3083;51.508;7.966;2023-04-19T05:13:23;8.00;99.90
6106;DHT22;3083;51.508;7.966;2023-04-19T05:15:50;8.10;99.90
6106;DHT22;3083;51.508;7.966;2023-04-19T05:18:17;8.20;99.90
6106;DHT22;3083;51.508;7.966;2023-04-19T05:20:44;8.40;99.90
6106;DHT22;3083;51.508;7.966;2023-04-19T05:23:12;8.50;99.90
6106;DHT22;3083;51.508;7.966;2023-04-19T05:25:39;8.50;99.90
6106;DHT22;3083;51.508;7.966;2023-04-19T05:28:06;8.50;99.90
6106;DHT22;3083;51.508;7.966;2023-04-19T05:30:33;8.40;99.90
6106;DHT22;3083;51.508;7.966;2023-04-19T05:33:00;8.30;99.90
6106;DHT22;3083;51.508;7.966;2023-04-19T05:35:27;8.20;99.90
6106;DHT22;3083;51.508;7.966;2023-04-19T05:37:54;8.10;99.90
6106;DHT22;3083;51.508;7.966;2023-04-19T05:40:23;8.00;99.90
6106;DHT22;3083;51.508;7.966;2023-04-19T05:42:50;7.90;99.90
6106;DHT22;3083;51.508;7.966;2023-04-19T05:45:17;7.80;99.90
6106;DHT22;3083;51.508;7.966;2023-04-19T05:47:44;7.80;99.90
6106;DHT22;3083;51.508;7.966;2023-04-19T05:50:11;7.80;99.90
6106;DHT22;3083;51.508;7.966;2023-04-19T05:52:39;8.00;99.90
6106;DHT22;3083;51.508;7.966;2023-04-19T05:55:07;8.20;99.90
6106;DHT22;3083;51.508;7.966;2023-04-19T05:57:35;8.30;99.90
6106;DHT22;3083;51.508;7.966;2023-04-19T06:00:03;8.40;99.90
6106;DHT22;3083;51.508;7.966;2023-04-19T06:02:30;8.40;99.90
6106;DHT22;3083;51.508;7.966;2023-04-19T06:04:57;8.40;99.90
6106;DHT22;3083;51.508;7.966;2023-04-19T06:07:24;8.40;99.90
6106;DHT22;3083;51.508;7.966;2023-04-19T06:09:51;8.40;99.90
6106;DHT22;3083;51.508;7.966;2023-04-19T06:12:18;8.40;99.90
6106;DHT22;3083;51.508;7.966;2023-04-19T06:14:46;8.30;99.90
6106;DHT22;3083;51.508;7.966;2023-04-19T06:17:13;8.30;99.90
6106;DHT22;3083;51.508;7.966;2023-04-19T06:19:41;8.40;99.90
6106;DHT22;3083;51.508;7.966;2023-04-19T06:22:08;8.40;99.90
6106;DHT22;3083;51.508;7.966;2023-04-19T06:24:35;8.40;99.90
6106;DHT22;3083;51.508;7.966;2023-04-19T06:27:02;8.40;99.90
6106;DHT22;3083;51.508;7.966;2023-04-19T06:29:28;8.40;99.90
6106;DHT22;3083;51.508;7.966;2023-04-19T06:31:57;8.40;99.90
6106;DHT22;3083;51.508;7.966;2023-04-19T06:34:24;8.60;99.90
6106;DHT22;3083;51.508;7.966;2023-04-19T06:36:51;8.90;99.90
6106;DHT22;3083;51.508;7.966;2023-04-19T06:39:18;9.10;99.90
6106;DHT22;3083;51.508;7.966;2023-04-19T06:41:45;9.30;99.90
6106;DHT22;3083;51.508;7.966;2023-04-19T06:44:11;9.50;99.90
6106;DHT22;3083;51.508;7.966;2023-04-19T06:46:39;9.60;99.90
6106;DHT22;3083;51.508;7.966;2023-04-19T06:49:07;9.70;99.90
6106;DHT22;3083;51.508;7.966;2023-04-19T06:51:34;9.60;99.90
6106;DHT22;3083;51.508;7.966;2023-04-19T06:54:01;9.60;99.90
6106;DHT22;3083;51.508;7.966;2023-04-19T06:56:41;9.70;99.90
6106;DHT22;3083;51.508;7.966;2023-04-19T06:59:10;9.80;99.90
6106;DHT22;3083;51.508;7.966;2023-04-19T07:01:37;9.80;99.90
6106;DHT22;3083;51.508;7.966;2023-04-19T07:04:07;10.00;99.90
6106;DHT22;3083;51.508;7.966;2023-04-19T07:06:34;10.10;99.90
6106;DHT22;3083;51.508;7.966;2023-04-19T07:09:01;10.20;99.90
6106;DHT22;3083;51.508;7.966;2023-04-19T07:11:29;10.30;99.90
6106;DHT22;3083;51.508;7.966;2023-04-19T07:13:56;10.40;99.90
6106;DHT22;3083;51.508;7.966;2023-04-19T07:16:24;10.50;99.90
6106;DHT22;3083;51.508;7.966;2023-04-19T07:18:51;10.60;99.90
6106;DHT22;3083;51.508;7.966;2023-04-19T07:21:20;10.70;99.90
6106;DHT22;3083;51.508;7.966;2023-04-19T07:23:47;10.70;99.90
6106;DHT22;3083;51.508;7.966;2023-04-19T07:26:13;10.70;99.90
6106;DHT22;3083;51.508;7.966;2023-04-19T07:28:40;10.60;99.90
6106;DHT22;3083;51.508;7.966;2023-04-19T07:31:13;10.60;99.90
6106;DHT22;3083;51.508;7.966;2023-04-19T07:33:39;10.40;99.90
6106;DHT22;3083;51.508;7.966;2023-04-19T07:36:07;10.30;99.90
6106;DHT22;3083;51.508;7.966;2023-04-19T07:38:35;10.30;99.90
6106;DHT22;3083;51.508;7.966;2023-04-19T07:41:02;10.40;99.90
6106;DHT22;3083;51.508;7.966;2023-04-19T07:43:29;10.50;99.90
6106;DHT22;3083;51.508;7.966;2023-04-19T07:45:56;10.50;99.90
6106;DHT22;3083;51.508;7.966;2023-04-19T07:48:23;10.30;99.90
6106;DHT22;3083;51.508;7.966;2023-04-19T07:50:50;10.30;99.90
6106;DHT22;3083;51.508;7.966;2023-04-19T07:53:17;10.50;99.90
6106;DHT22;3083;51.508;7.966;2023-04-19T07:55:45;10.40;99.90
6106;DHT22;3083;51.508;7.966;2023-04-19T07:58:12;10.30;99.90
6106;DHT22;3083;51.508;7.966;2023-04-19T08:00:39;10.30;99.90
6106;DHT22;3083;51.508;7.966;2023-04-19T08:03:06;10.60;99.90
6106;DHT22;3083;51.508;7.966;2023-04-19T08:05:33;10.90;99.90
6106;DHT22;3083;51.508;7.966;2023-04-19T08:08:00;11.10;99.90
6106;DHT22;3083;51.508;7.966;2023-04-19T08:10:27;11.10;99.90
6106;DHT22;3083;51.508;7.966;2023-04-19T08:12:56;11.00;99.90
6106;DHT22;3083;51.508;7.966;2023-04-19T08:15:23;11.00;99.90
6106;DHT22;3083;51.508;7.966;2023-04-19T08:17:50;11.00;99.90
6106;DHT22;3083;51.508;7.966;2023-04-19T08:20:17;11.00;99.90
6106;DHT22;3083;51.508;7.966;2023-04-19T08:22:44;11.00;99.90
6106;DHT22;3083;51.508;7.966;2023-04-19T08:25:11;11.00;99.90
6106;DHT22;3083;51.508;7.966;2023-04-19T08:27:38;10.80;99.90
6106;DHT22;3083;51.508;7.966;2023-04-19T08:30:08;10.70;99.90
6106;DHT22;3083;51.508;7.966;2023-04-19T08:32:35;10.80;99.90
6106;DHT22;3083;51.508;7.966;2023-04-19T08:35:02;10.70;99.90
6106;DHT22;3083;51.508;7.966;2023-04-19T08:37:29;10.60;99.90
6106;DHT22;3083;51.508;7.966;2023-04-19T08:39:56;10.60;99.90
6106;DHT22;3083;51.508;7.966;2023-04-19T08:42:23;10.80;99.90
6106;DHT22;3083;51.508;7.966;2023-04-19T08:44:50;11.00;99.90
6106;DHT22;3083;51.508;7.966;2023-04-19T08:47:19;11.00;99.90
6106;DHT22;3083;51.508;7.966;2023-04-19T08:49:47;11.00;99.90
6106;DHT22;3083;51.508;7.966;2023-04-19T08:52:15;10.90;99.90
6106;DHT22;3083;51.508;7.966;2023-04-19T08:54:42;10.90;99.90
6106;DHT22;3083;51.508;7.966;2023-04-19T08:57:09;10.90;99.90
6106;DHT22;3083;51.508;7.966;2023-04-19T08:59:37;10.90;99.90
6106;DHT22;3083;51.508;7.966;2023-04-19T09:02:04;11.00;99.90
6106;DHT22;3083;51.508;7.966;2023-04-19T09:04:33;11.00;99.90
6106;DHT22;3083;51.508;7.966;2023-04-19T09:07:00;10.90;99.90
6106;DHT22;3083;51.508;7.966;2023-04-19T09:09:28;11.00;99.90
6106;DHT22;3083;51.508;7.966;2023-04-19T09:11:55;11.30;99.90
6106;DHT22;3083;51.508;7.966;2023-04-19T09:14:25;11.40;99.90
6106;DHT22;3083;51.508;7.966;2023-04-19T09:16:52;11.50;99.90
6106;DHT22;3083;51.508;7.966;2023-04-19T09:19:19;11.60;99.90
6106;DHT22;3083;51.508;7.966;2023-04-19T09:21:47;11.40;99.90
6106;DHT22;3083;51.508;7.966;2023-04-19T09:24:16;11.30;99.90
6106;DHT22;3083;51.508;7.966;2023-04-19T09:26:53;11.30;99.90
6106;DHT22;3083;51.508;7.966;2023-04-19T09:29:22;11.40;99.90
6106;DHT22;3083;51.508;7.966;2023-04-19T09:31:56;11.30;99.90
6106;DHT22;3083;51.508;7.966;2023-04-19T09:34:23;11.20;99.90
6106;DHT22;3083;51.508;7.966;2023-04-19T09:36:54;11.20;99.90
6106;DHT22;3083;51.508;7.966;2023-04-19T09:39:30;11.30;99.90
6106;DHT22;3083;51.508;7.966;2023-04-19T09:41:57;11.60;99.90
6106;DHT22;3083;51.508;7.966;2023-04-19T09:44:24;11.60;99.90
6106;DHT22;3083;51.508;7.966;2023-04-19T09:46:53;11.60;99.90
6106;DHT22;3083;51.508;7.966;2023-04-19T09:49:21;11.60;99.90
6106;DHT22;3083;51.508;7.966;2023-04-19T09:51:50;11.70;99.90
6106;DHT22;3083;51.508;7.966;2023-04-19T09:54:20;11.70;99.90
6106;DHT22;3083;51.508;7.966;2023-04-19T09:56:47;11.70;99.90
6106;DHT22;3083;51.508;7.966;2023-04-19T09:59:15;11.70;99.90
6106;DHT22;3083;51.508;7.966;2023-04-19T10:01:43;11.80;99.90
6106;DHT22;3083;51.508;7.966;2023-04-19T10:04:11;11.90;99.90
6106;DHT22;3083;51.508;7.966;2023-04-19T10:06:39;12.10;99.90
6106;DHT22;3083;51.508;7.966;2023-04-19T10:09:06;12.30;99.90
6106;DHT22;3083;51.508;7.966;2023-04-19T10:11:36;12.40;99.90
6106;DHT22;3083;51.508;7.966;2023-04-19T10:14:06;12.60;99.90
6106;DHT22;3083;51.508;7.966;2023-04-19T10:16:34;12.80;99.90
6106;DHT22;3083;51.508;7.966;2023-04-19T10:19:03;13.00;99.90
6106;DHT22;3083;51.508;7.966;2023-04-19T10:21:31;13.30;99.90
6106;DHT22;3083;51.508;7.966;2023-04-19T10:23:59;13.20;99.90
6106;DHT22;3083;51.508;7.966;2023-04-19T10:26:26;13.00;99.90
6106;DHT22;3083;51.508;7.966;2023-04-19T10:28:55;12.90;99.90
6106;DHT22;3083;51.508;7.966;2023-04-19T10:31:25;12.90;99.90
6106;DHT22;3083;51.508;7.966;2023-04-19T10:33:52;12.80;99.90
6106;DHT22;3083;51.508;7.966;2023-04-19T10:36:20;12.80;99.90
6106;DHT22;3083;51.508;7.966;2023-04-19T10:38:48;12.90;99.90
6106;DHT22;3083;51.508;7.966;2023-04-19T10:41:17;13.20;99.90
6106;DHT22;3083;51.508;7.966;2023-04-19T10:43:45;13.40;99.90
6106;DHT22;3083;51.508;7.966;2023-04-19T10:46:15;13.50;99.90
6106;DHT22;3083;51.508;7.966;2023-04-19T10:49:02;13.40;99.90
6106;DHT22;3083;51.508;7.966;2023-04-19T10:51:33;13.40;99.90
6106;DHT22;3083;51.508;7.966;2023-04-19T10:54:01;13.30;99.90
6106;DHT22;3083;51.508;7.966;2023-04-19T10:59:36;13.30;99.90
6106;DHT22;3083;51.508;7.966;2023-04-19T11:02:05;13.40;99.90
6106;DHT22;3083;51.508;7.966;2023-04-19T11:05:02;13.30;99.90
6106;DHT22;3083;51.508;7.966;2023-04-19T11:07:37;13.30;99.90
6106;DHT22;3083;51.508;7.966;2023-04-19T11:10:06;13.30;99.90
6106;DHT22;3083;51.508;7.966;2023-04-19T11:12:33;13.20;99.90
6106;DHT22;3083;51.508;7.966;2023-04-19T11:15:00;13.20;99.90
6106;DHT22;3083;51.508;7.966;2023-04-19T11:17:30;13.30;99.90
6106;DHT22;3083;51.508;7.966;2023-04-19T11:19:58;13.40;99.90
6106;DHT22;3083;51.508;7.966;2023-04-19T11:22:29;13.50;99.90
6106;DHT22;3083;51.508;7.966;2023-04-19T11:25:04;13.50;99.90
6106;DHT22;3083;51.508;7.966;2023-04-19T11:27:31;13.70;99.90
6106;DHT22;3083;51.508;7.966;2023-04-19T11:30:02;13.90;99.90
6106;DHT22;3083;51.508;7.966;2023-04-19T11:32:31;14.00;99.90
6106;DHT22;3083;51.508;7.966;2023-04-19T11:35:03;14.00;99.90
6106;DHT22;3083;51.508;7.966;2023-04-19T11:37:32;14.00;99.90
6106;DHT22;3083;51.508;7.966;2023-04-19T11:39:59;14.00;99.90
6106;DHT22;3083;51.508;7.966;2023-04-19T11:42:26;14.00;99.90
6106;DHT22;3083;51.508;7.966;2023-04-19T11:44:54;14.10;99.90
6106;DHT22;3083;51.508;7.966;2023-04-19T11:47:22;14.20;99.90
6106;DHT22;3083;51.508;7.966;2023-04-19T11:49:50;14.30;99.90
6106;DHT22;3083;51.508;7.966;2023-04-19T11:52:22;14.30;99.90
6106;DHT22;3083;51.508;7.966;2023-04-19T11:54:50;14.30;99.90
6106;DHT22;3083;51.508;7.966;2023-04-19T11:57:29;14.40;99.90
6106;DHT22;3083;51.508;7.966;2023-04-19T12:00:04;14.40;99.90
6106;DHT22;3083;51.508;7.966;2023-04-19T12:02:36;14.40;99.90
6106;DHT22;3083;51.508;7.966;2023-04-19T12:05:10;14.50;99.90
6106;DHT22;3083;51.508;7.966;2023-04-19T12:10:19;14.30;99.90
6106;DHT22;3083;51.508;7.966;2023-04-19T12:12:46;14.50;99.90
6106;DHT22;3083;51.508;7.966;2023-04-19T12:15:13;14.70;99.90
6106;DHT22;3083;51.508;7.966;2023-04-19T12:17:55;14.60;99.90
6106;DHT22;3083;51.508;7.966;2023-04-19T12:20:31;14.80;99.90
6106;DHT22;3083;51.508;7.966;2023-04-19T12:22:58;14.90;99.90
6106;DHT22;3083;51.508;7.966;2023-04-19T12:25:29;14.90;99.90
6106;DHT22;3083;51.508;7.966;2023-04-19T12:27:56;14.80;99.90
6106;DHT22;3083;51.508;7.966;2023-04-19T12:30:23;14.70;99.90
6106;DHT22;3083;51.508;7.966;2023-04-19T12:32:51;14.40;99.90
6106;DHT22;3083;51.508;7.966;2023-04-19T12:35:20;14.20;99.90
6106;DHT22;3083;51.508;7.966;2023-04-19T12:37:48;14.20;99.90
6106;DHT22;3083;51.508;7.966;2023-04-19T12:40:15;14.20;99.90
6106;DHT22;3083;51.508;7.966;2023-04-19T12:42:42;14.40;99.90
6106;DHT22;3083;51.508;7.966;2023-04-19T12:45:10;14.50;99.90
6106;DHT22;3083;51.508;7.966;2023-04-19T12:47:37;14.60;99.90
6106;DHT22;3083;51.508;7.966;2023-04-19T12:50:05;14.60;99.90
6106;DHT22;3083;51.508;7.966;2023-04-19T12:52:33;14.40;99.90
6106;DHT22;3083;51.508;7.966;2023-04-19T12:55:01;14.50;99.90
6106;DHT22;3083;51.508;7.966;2023-04-19T12:57:28;14.50;99.90
6106;DHT22;3083;51.508;7.966;2023-04-19T12:59:55;14.60;99.90
6106;DHT22;3083;51.508;7.966;2023-04-19T13:02:22;14.50;99.90
6106;DHT22;3083;51.508;7.966;2023-04-19T13:04:49;14.50;99.90
6106;DHT22;3083;51.508;7.966;2023-04-19T13:07:16;14.70;99.90
6106;DHT22;3083;51.508;7.966;2023-04-19T13:09:43;14.70;99.90
6106;DHT22;3083;51.508;7.966;2023-04-19T13:12:11;14.90;99.90
6106;DHT22;3083;51.508;7.966;2023-04-19T13:14:38;14.90;99.90
6106;DHT22;3083;51.508;7.966;2023-04-19T13:17:05;14.90;99.90
6106;DHT22;3083;51.508;7.966;2023-04-19T13:19:32;14.90;99.90
6106;DHT22;3083;51.508;7.966;2023-04-19T13:21:59;14.90;99.90
6106;DHT22;3083;51.508;7.966;2023-04-19T13:24:25;14.80;99.90
6106;DHT22;3083;51.508;7.966;2023-04-19T13:26:52;14.70;99.90
6106;DHT22;3083;51.508;7.966;2023-04-19T13:29:21;14.70;99.90
6106;DHT22;3083;51.508;7.966;2023-04-19T13:31:48;14.80;99.90
6106;DHT22;3083;51.508;7.966;2023-04-19T13:34:14;14.90;99.90
6106;DHT22;3083;51.508;7.966;2023-04-19T13:36:43;14.90;99.90
6106;DHT22;3083;51.508;7.966;2023-04-19T13:39:10;15.00;99.90
6106;DHT22;3083;51.508;7.966;2023-04-19T13:41:37;15.00;99.90
6106;DHT22;3083;51.508;7.966;2023-04-19T13:44:04;14.90;99.90
6106;DHT22;3083;51.508;7.966;2023-04-19T13:46:32;14.80;99.90
6106;DHT22;3083;51.508;7.966;2023-04-19T13:48:59;14.80;99.90
6106;DHT22;3083;51.508;7.966;2023-04-19T13:51:26;14.90;99.90
6106;DHT22;3083;51.508;7.966;2023-04-19T13:53:53;14.80;99.90
6106;DHT22;3083;51.508;7.966;2023-04-19T13:56:20;14.70;99.90
6106;DHT22;3083;51.508;7.966;2023-04-19T13:58:46;14.70;99.90
6106;DHT22;3083;51.508;7.966;2023-04-19T14:01:14;14.70;99.90
6106;DHT22;3083;51.508;7.966;2023-04-19T14:03:42;14.70;99.90
6106;DHT22;3083;51.508;7.966;2023-04-19T14:06:09;14.70;99.90
6106;DHT22;3083;51.508;7.966;2023-04-19T14:08:36;14.70;99.90
6106;DHT22;3083;51.508;7.966;2023-04-19T14:11:04;14.70;99.90
6106;DHT22;3083;51.508;7.966;2023-04-19T14:13:31;14.60;99.90
6106;DHT22;3083;51.508;7.966;2023-04-19T14:15:57;14.50;99.90
6106;DHT22;3083;51.508;7.966;2023-04-19T14:18:24;14.40;99.90
6106;DHT22;3083;51.508;7.966;2023-04-19T14:20:54;14.40;99.90
6106;DHT22;3083;51.508;7.966;2023-04-19T14:23:21;14.50;99.90
6106;DHT22;3083;51.508;7.966;2023-04-19T14:25:48;14.50;99.90
6106;DHT22;3083;51.508;7.966;2023-04-19T14:28:14;14.60;99.90
6106;DHT22;3083;51.508;7.966;2023-04-19T14:30:41;14.70;99.90
6106;DHT22;3083;51.508;7.966;2023-04-19T14:33:08;14.80;99.90
6106;DHT22;3083;51.508;7.966;2023-04-19T14:35:35;15.00;99.90
6106;DHT22;3083;51.508;7.966;2023-04-19T14:38:04;15.00;99.90
6106;DHT22;3083;51.508;7.966;2023-04-19T14:40:31;15.00;99.90
6106;DHT22;3083;51.508;7.966;2023-04-19T14:42:58;14.90;99.90
6106;DHT22;3083;51.508;7.966;2023-04-19T14:45:25;14.90;99.90
6106;DHT22;3083;51.508;7.966;2023-04-19T14:47:52;14.80;99.90
6106;DHT22;3083;51.508;7.966;2023-04-19T14:50:19;14.80;99.90
6106;DHT22;3083;51.508;7.966;2023-04-19T14:52:46;15.00;99.90
6106;DHT22;3083;51.508;7.966;2023-04-19T14:55:14;15.10;99.90
6106;DHT22;3083;51.508;7.966;2023-04-19T14:57:41;15.00;99.90
6106;DHT22;3083;51.508;7.966;2023-04-19T15:00:09;14.80;99.90
6106;DHT22;3083;51.508;7.966;2023-04-19T15:02:36;14.60;99.90
6106;DHT22;3083;51.508;7.966;2023-04-19T15:05:04;14.50;99.90
6106;DHT22;3083;51.508;7.966;2023-04-19T15:07:31;14.40;99.90
6106;DHT22;3083;51.508;7.966;2023-04-19T15:09:58;14.30;99.90
6106;DHT22;3083;51.508;7.966;2023-04-19T15:12:26;14.30;99.90
6106;DHT22;3083;51.508;7.966;2023-04-19T15:14:53;14.30;99.90
6106;DHT22;3083;51.508;7.966;2023-04-19T15:17:20;14.30;99.90
6106;DHT22;3083;51.508;7.966;2023-04-19T15:19:47;14.30;99.90
6106;DHT22;3083;51.508;7.966;2023-04-19T15:22:14;14.40;99.90
6106;DHT22;3083;51.508;7.966;2023-04-19T15:24:41;14.40;99.90
6106;DHT22;3083;51.508;7.966;2023-04-19T15:27:08;14.40;99.90
6106;DHT22;3083;51.508;7.966;2023-04-19T15:29:36;14.40;99.90
6106;DHT22;3083;51.508;7.966;2023-04-19T15:32:04;14.40;99.90
6106;DHT22;3083;51.508;7.966;2023-04-19T15:34:31;14.40;99.90
6106;DHT22;3083;51.508;7.966;2023-04-19T15:36:58;14.40;99.90
6106;DHT22;3083;51.508;7.966;2023-04-19T15:39:26;14.40;99.90
6106;DHT22;3083;51.508;7.966;2023-04-19T15:41:53;14.40;99.90
6106;DHT22;3083;51.508;7.966;2023-04-19T15:44:20;14.30;99.90
6106;DHT22;3083;51.508;7.966;2023-04-19T15:46:48;14.30;99.90
6106;DHT22;3083;51.508;7.966;2023-04-19T15:49:15;14.20;99.90
6106;DHT22;3083;51.508;7.966;2023-04-19T15:51:42;14.10;99.90
6106;DHT22;3083;51.508;7.966;2023-04-19T15:54:09;14.00;99.90
6106;DHT22;3083;51.508;7.966;2023-04-19T15:56:36;14.00;99.90
6106;DHT22;3083;51.508;7.966;2023-04-19T15:59:03;14.00;99.90
6106;DHT22;3083;51.508;7.966;2023-04-19T16:01:30;14.00;99.90
6106;DHT22;3083;51.508;7.966;2023-04-19T16:03:58;14.10;99.90
6106;DHT22;3083;51.508;7.966;2023-04-19T16:06:25;14.10;99.90
6106;DHT22;3083;51.508;7.966;2023-04-19T16:08:52;14.10;99.90
6106;DHT22;3083;51.508;7.966;2023-04-19T16:11:19;14.20;99.90
6106;DHT22;3083;51.508;7.966;2023-04-19T16:13:46;14.30;99.90
6106;DHT22;3083;51.508;7.966;2023-04-19T16:16:13;14.20;99.90
6106;DHT22;3083;51.508;7.966;2023-04-19T16:18:40;14.20;99.90